ESNV

Vilhelmina Airport

Sweden
METAR ESNV 181250Z AUTO VRB01KT 9999 -SN OVC022/// M06/M08 Q1023
Observed Flight Rules
Dec-18 @ 12:50 UTC (19 minutes ago) Marginal Visual Flight Rules
Wind Visibility Clouds Conditions
Variable at 1 knots 10,000+ meters
  • Overcast at 2,200' AGL
  • Light Snow
Temperatures Readings
Current -6°C / 21°F
Dewpoint -8°C / 18°F
Humidity 86%
Altimeter 30.21" Hg
Pressure 1023 hPa
Elevation 348
METAR ESNV 181250Z AUTO VRB01KT 9999 -SN OVC022/// M06/M08 Q1023
Observed Flight Rules
Dec-18 @ 12:50 UTC
(19 minutes ago)
MVFR
Wind Visibility
Variable at 1 knots 10,000+ meters
Clouds
  • Overcast at 2,200' AGL
Conditions
  • Light Snow
Temperature Dewpoint
-6°C / 21°F -8°C / 18°F
Humidity Altimeter Pressure
86% 30.21" Hg 1023 hPa